Latest Coastal Weather Observations for Cape Wessel

IDD60701

Issued at 10:21 am CST Saturday 22 July 2017 (issued every 10 minutes, with the page automatically refreshed every 10 minutes)

About coastal observations | Map of coastal stations | Coastal observations for NT | Marine services | Other Formats
Station Details ID: 200786 Name: CAPE WESSEL Lat: -11.00 Lon: 136.76 Height: 18.0 m
Data from the previous 72 hours. | See also: Recent months at Cape Wessel
Date/Time
CST
Temp
°C
Wind Pressure Rain since
9am
mm
Weather Cloud Vis
km
Sea
Height
m
Swell
Dir  Spd
kts
Gust
kts
hPa Trend Height
m
Period
s
Dir
22/10:00am 28.6 SE 19 23 1014.6 - 0.0 - - - - - - -
22/09:30am 28.0 SE 18 23 1014.7 - 0.0 - - - - - - -
22/09:00am 27.6 SE 17 20 1014.7 - 0.0 - - - - - - -
22/08:30am 26.7 SE 17 21 1014.6 - 0.0 - - - - - - -
22/08:00am 26.0 SE 17 21 1014.3 - 0.0 - - - - - - -
22/07:30am 25.5 SE 16 19 1014.1 - 0.0 - - - - - - -
22/07:00am 25.3 SSE 15 18 1013.9 - 0.0 - - - - - - -
22/06:30am 25.1 SSE 14 17 1013.6 - 0.0 - - - - - - -
22/06:00am 25.0 SSE 13 16 1013.3 - 0.0 - - - - - - -
22/05:30am 25.1 SSE 13 16 1013.2 - 0.0 - - - - - - -
22/05:00am 25.1 SSE 14 16 1013.0 - 0.0 - - - - - - -
22/04:30am 25.0 SSE 13 17 1012.9 - 0.0 - - - - - - -
22/04:00am 24.7 SSE 12 16 1012.9 - 0.0 - - - - - - -
22/03:30am 24.4 S 13 17 1012.8 - 0.0 - - - - - - -
22/03:00am 24.4 S 12 15 1012.8 - 0.0 - - - - - - -
22/02:30am 24.5 SSE 14 16 1013.0 - 0.0 - - - - - - -
22/02:00am 24.6 SSE 14 17 1013.4 - 0.0 - - - - - - -
22/01:30am 24.6 SSE 15 18 1013.7 - 0.0 - - - - - - -
22/01:00am 24.6 SSE 15 19 1013.8 - 0.0 - - - - - - -
22/12:30am 24.8 SSE 15 19 1014.0 - 0.0 - - - - - - -
22/12:00am 24.9 SSE 15 19 1014.2 - 0.0 - - - - - - -
 
Date/Time
CST
Temp
°C
Wind Pressure Rain since
9am
mm
Weather Cloud Vis
km
Sea
Height
m
Swell
Dir  Spd
kts
Gust
kts
hPa Trend Height
m
Period
s
Dir
21/11:30pm 25.0 SSE 16 19 1014.2 - 0.0 - - - - - - -
21/11:00pm 25.1 SSE 15 21 1014.4 - 0.0 - - - - - - -
21/10:30pm 25.2 SSE 18 22 1014.6 - 0.0 - - - - - - -
21/10:00pm 25.1 SSE 18 22 1014.7 - 0.0 - - - - - - -
21/09:30pm 25.3 SSE 18 22 1014.7 - 0.0 - - - - - - -
21/09:00pm 25.6 SSE 19 23 1014.6 - 0.0 - - - - - - -
21/08:30pm 25.6 SE 17 22 1014.4 - 0.0 - - - - - - -
21/08:00pm 25.6 SE 18 22 1014.2 - 0.0 - - - - - - -
21/07:30pm 25.7 SE 19 23 1013.6 - 0.0 - - - - - - -
21/07:00pm 25.6 SSE 19 23 1013.2 - 0.0 - - - - - - -
21/06:30pm 25.6 SE 18 23 1012.9 - 0.0 - - - - - - -
21/06:00pm 25.9 SSE 17 21 1012.7 - 0.0 - - - - - - -
21/05:30pm 26.3 SSE 17 21 1012.4 - 0.0 - - - - - - -
21/05:00pm 26.6 SSE 18 22 1012.1 - 0.0 - - - - - - -
21/04:30pm 26.7 SE 18 22 1011.9 - 0.0 - - - - - - -
21/04:00pm 28.2 SE 19 24 1011.7 - 0.0 - - - - - - -
21/03:30pm 27.6 SE 19 23 1011.5 - 0.0 - - - - - - -
21/03:00pm 28.1 SE 19 23 1011.6 - 0.0 - - - - - - -
21/02:30pm 27.7 SE 19 24 1011.8 - 0.0 - - - - - - -
21/02:00pm 27.6 SE 19 24 1012.0 - 0.0 - - - - - - -
21/01:30pm 26.8 SE 21 27 1012.1 - 0.0 - - - - - - -
21/01:00pm 27.3 SE 20 25 1012.5 - 0.0 - - - - - - -
21/12:30pm 28.1 SE 21 26 1013.0 - 0.0 - - - - - - -
21/12:00pm 28.9 SE 20 26 1013.3 - 0.0 - - - - - - -
21/11:30am 28.9 SE 21 25 1013.6 - 0.0 - - - - - - -
21/11:00am 29.1 SE 19 25 1013.9 - 0.0 - - - - - - -
21/10:30am 28.2 SE 19 24 1014.1 - 0.0 - - - - - - -
21/10:00am 28.0 SE 20 24 1014.0 - 0.0 - - - - - - -
21/09:30am 27.6 SSE 20 24 1014.0 - 0.0 - - - - - - -
21/09:00am 27.0 SSE 19 23 1014.0 - 0.0 - - - - - - -
21/08:30am 26.1 SSE 20 25 1013.7 - 0.0 - - - - - - -
21/08:00am 25.6 SSE 20 24 1013.3 - 0.0 - - - - - - -
21/07:30am 25.2 SSE 19 24 1013.1 - 0.0 - - - - - - -
21/07:00am 25.2 SSE 19 24 1012.8 - 0.0 - - - - - - -
21/06:30am 24.8 SSE 19 23 1012.5 - 0.0 - - - - - - -
21/06:00am 25.0 SSE 18 23 1012.3 - 0.0 - - - - - - -
21/05:30am 24.9 SSE 17 21 1012.1 - 0.0 - - - - - - -
21/05:00am 24.8 SSE 17 21 1011.8 - 0.0 - - - - - - -
21/04:30am 24.9 SSE 17 21 1011.7 - 0.0 - - - - - - -
21/04:00am 24.9 SSE 17 20 1011.8 - 0.0 - - - - - - -
21/03:30am 24.9 SSE 15 18 1011.9 - 0.0 - - - - - - -
21/03:00am 25.1 SSE 15 19 1012.1 - 0.0 - - - - - - -
21/02:30am 24.8 SSE 16 19 1012.1 - 0.0 - - - - - - -
21/02:00am 24.8 SSE 15 18 1012.4 - 0.0 - - - - - - -
21/01:30am 24.7 SSE 15 19 1012.5 - 0.0 - - - - - - -
21/01:00am 24.8 SSE 15 19 1012.7 - 0.0 - - - - - - -
21/12:30am 24.9 SSE 16 20 1012.8 - 0.0 - - - - - - -
21/12:00am 24.9 SSE 17 21 1012.6 - 0.0 - - - - - - -
 
Date/Time
CST
Temp
°C
Wind Pressure Rain since
9am
mm
Weather Cloud Vis
km
Sea
Height
m
Swell
Dir  Spd
kts
Gust
kts
hPa Trend Height
m
Period
s
Dir
20/11:30pm 25.1 SSE 18 23 1012.5 - 0.0 - - - - - - -
20/11:00pm 25.2 SSE 17 23 1012.6 - 0.0 - - - - - - -
20/10:30pm 25.2 SSE 18 22 1012.6 - 0.0 - - - - - - -
20/10:00pm 25.3 SSE 19 24 1012.6 - 0.0 - - - - - - -
20/09:30pm 25.4 SSE 19 24 1012.5 - 0.0 - - - - - - -
20/09:00pm 25.4 SSE 19 24 1012.5 - 0.0 - - - - - - -
20/08:30pm 25.4 SSE 19 24 1012.2 - 0.0 - - - - - - -
20/08:00pm 25.5 SSE 18 23 1011.9 - 0.0 - - - - - - -
20/07:30pm 25.7 SSE 18 22 1011.6 - 0.0 - - - - - - -
20/07:00pm 25.7 SSE 19 24 1011.4 - 0.0 - - - - - - -
20/06:30pm 25.8 SSE 17 22 1010.9 - 0.0 - - - - - - -
20/06:00pm 25.9 SSE 20 23 1010.7 - 0.0 - - - - - - -
20/05:30pm 26.8 SSE 18 23 1010.5 - 0.0 - - - - - - -
20/05:00pm 27.1 SSE 19 23 1010.3 - 0.0 - - - - - - -
20/04:30pm 27.4 SSE 22 26 1010.1 - 0.0 - - - - - - -
20/04:00pm 27.7 SE 22 26 1009.9 - 0.0 - - - - - - -
20/03:30pm 28.3 SE 23 27 1009.9 - 0.0 - - - - - - -
20/03:00pm 28.7 SE 22 29 1010.0 - 0.0 - - - - - - -
20/02:30pm 28.7 SE 23 28 1010.1 - 0.0 - - - - - - -
20/02:00pm 27.8 SSE 23 28 1010.4 - 0.0 - - - - - - -
20/01:30pm 29.2 SE 23 29 1011.0 - 0.0 - - - - - - -
20/01:00pm 29.1 SSE 25 30 1011.4 - 0.0 - - - - - - -
20/12:30pm 29.2 SSE 25 30 1012.0 - 0.0 - - - - - - -
20/12:00pm 29.3 SSE 23 29 1012.3 - 0.0 - - - - - - -
20/11:30am 29.1 SE 23 29 1012.7 - 0.0 - - - - - - -
20/11:00am 29.2 SE 24 30 1012.9 - 0.0 - - - - - - -
20/10:30am 28.8 SSE 24 29 1013.1 - 0.0 - - - - - - -
20/10:00am 28.7 SE 22 29 1013.2 - 0.0 - - - - - - -
20/09:30am 28.2 SE 22 26 1013.2 - 0.0 - - - - - - -
20/09:00am 27.7 SSE 21 28 1013.0 - 0.0 - - - - - - -
20/08:30am 27.1 SSE 22 27 1012.9 - 0.0 - - - - - - -
20/08:00am 26.4 SSE 21 27 1012.6 - 0.0 - - - - - - -
20/07:30am 26.3 SE 21 25 1012.4 - 0.0 - - - - - - -
20/07:00am 26.1 SSE 20 24 1012.0 - 0.0 - - - - - - -
20/06:30am 26.0 SE 19 23 1011.8 - 0.0 - - - - - - -
20/06:00am 25.6 SSE 19 25 1011.5 - 0.0 - - - - - - -
20/05:30am 25.4 SSE 18 23 1011.3 - 0.0 - - - - - - -
20/05:00am 25.0 SSE 18 23 1011.1 - 0.0 - - - - - - -
20/04:30am 25.7 SSE 18 22 1011.0 - 0.0 - - - - - - -
20/04:00am 25.9 SSE 17 21 1010.8 - 0.0 - - - - - - -
20/03:30am 26.1 SSE 18 22 1010.7 - 0.0 - - - - - - -
20/03:00am 26.1 SSE 17 21 1010.8 - 0.0 - - - - - - -
20/02:30am 26.1 SSE 16 21 1010.8 - 0.0 - - - - - - -
20/02:00am 26.1 SSE 18 21 1010.9 - 0.0 - - - - - - -
20/01:30am 25.9 SSE 18 21 1011.1 - 0.0 - - - - - - -
20/01:00am 25.7 SSE 18 22 1011.3 - 0.0 - - - - - - -
20/12:30am 25.6 SSE 17 21 1011.7 - 0.0 - - - - - - -
20/12:00am 25.9 SSE 15 18 1012.1 - 0.0 - - - - - - -
 
Date/Time
CST
Temp
°C
Wind Pressure Rain since
9am
mm
Weather Cloud Vis
km
Sea
Height
m
Swell
Dir  Spd
kts
Gust
kts
hPa Trend Height
m
Period
s
Dir
19/11:30pm 25.5 SSE 16 19 1012.2 - 0.0 - - - - - - -
19/11:00pm 25.3 SSE 16 20 1012.3 - 0.0 - - - - - - -
19/10:30pm 25.4 SSE 17 21 1012.7 - 0.0 - - - - - - -
19/10:00pm 25.6 SSE 18 22 1012.7 - 0.0 - - - - - - -
19/09:30pm 25.6 SSE 17 23 1012.6 - 0.0 - - - - - - -
19/09:00pm 25.7 SSE 19 23 1012.6 - 0.0 - - - - - - -
19/08:30pm 25.7 SSE 18 22 1012.4 - 0.0 - - - - - - -
19/08:00pm 25.8 SSE 18 23 1012.1 - 0.0 - - - - - - -
19/07:30pm 25.8 SSE 17 21 1011.9 - 0.0 - - - - - - -
19/07:00pm 26.0 SSE 18 22 1011.5 - 0.0 - - - - - - -
19/06:30pm 26.0 SSE 17 21 1011.2 - 0.0 - - - - - - -
19/06:00pm 26.2 SSE 18 23 1011.0 - 0.0 - - - - - - -
19/05:30pm 26.8 SE 17 21 1010.9 - 0.0 - - - - - - -
19/05:00pm 27.1 SE 19 22 1010.7 - 0.0 - - - - - - -
19/04:30pm 27.2 SE 17 22 1010.5 - 0.0 - - - - - - -
19/04:00pm 27.9 SE 17 22 1010.4 - 0.0 - - - - - - -
19/03:30pm 28.4 SE 18 22 1010.2 - 0.0 - - - - - - -
19/03:00pm 29.5 SE 16 20 1010.4 - 0.0 - - - - - - -
19/02:30pm 29.4 SE 17 21 1010.7 - 0.0 - - - - - - -
19/02:00pm 29.1 SE 16 19 1010.7 - 0.0 - - - - - - -
19/01:30pm 29.7 SE 17 21 1011.2 - 0.0 - - - - - - -
19/01:00pm 29.3 SE 17 20 1011.7 - 0.0 - - - - - - -
19/12:30pm 28.9 SE 17 21 1012.2 - 0.0 - - - - - - -
19/12:00pm 29.1 SE 18 22 1012.6 - 0.0 - - - - - - -
19/11:30am 28.8 SE 19 23 1012.8 - 0.0 - - - - - - -
19/11:00am 28.2 SE 17 22 1013.2 - 0.0 - - - - - - -
19/10:30am 28.5 SE 19 23 1013.5 - 0.0 - - - - - - -

Other Formats:

Comma delimited format used in spreadsheet applications
http://www.bom.gov.au/fwo/IDD60701/IDD60701.94147.axf

JavaScript Object Notation format (JSON) in row-major order
http://www.bom.gov.au/fwo/IDD60701/IDD60701.94147.json